createdAt,value
2022-10-31T00:01:11.262Z,2.17
2022-10-31T00:03:38.678Z,1.80
2022-10-31T00:06:06.085Z,2.10
2022-10-31T00:08:34.805Z,2.03
2022-10-31T00:11:02.134Z,2.47
2022-10-31T00:13:29.464Z,2.30
2022-10-31T00:15:56.701Z,1.97
2022-10-31T00:18:23.904Z,2.30
2022-10-31T00:20:51.083Z,2.30
2022-10-31T00:23:18.295Z,2.33
2022-10-31T00:25:46.836Z,1.87
2022-10-31T00:28:14.149Z,2.57
2022-10-31T00:30:43.918Z,2.93
2022-10-31T00:33:11.136Z,2.43
2022-10-31T00:35:38.352Z,2.40
2022-10-31T00:38:06.377Z,2.80
2022-10-31T00:40:33.569Z,2.10
2022-10-31T00:43:02.631Z,2.20
2022-10-31T00:45:30.225Z,2.30
2022-10-31T00:47:57.776Z,2.60
2022-10-31T00:50:25.213Z,2.63
2022-10-31T00:52:52.608Z,2.73
2022-10-31T00:55:20.105Z,2.40
2022-10-31T00:57:48.064Z,2.70
2022-10-31T01:00:17.349Z,2.33
2022-10-31T01:02:48.231Z,2.10
2022-10-31T01:05:30.821Z,2.53
2022-10-31T01:08:02.939Z,2.50
2022-10-31T01:10:30.500Z,2.63
2022-10-31T01:12:58.162Z,2.90
2022-10-31T01:15:26.895Z,2.60
2022-10-31T01:17:54.155Z,3.13
2022-10-31T01:20:21.981Z,3.03
2022-10-31T01:22:54.618Z,2.63
2022-10-31T01:25:24.910Z,3.40
2022-10-31T01:27:52.103Z,2.73
2022-10-31T01:30:19.300Z,3.00
2022-10-31T01:32:56.100Z,3.33
2022-10-31T01:35:28.432Z,3.07
2022-10-31T01:37:56.023Z,3.40
2022-10-31T01:40:23.437Z,3.13
2022-10-31T01:42:50.788Z,3.20
2022-10-31T01:45:18.940Z,3.33
2022-10-31T01:47:48.944Z,3.20
2022-10-31T01:50:20.637Z,2.87
2022-10-31T01:52:49.219Z,2.87
2022-10-31T01:55:20.053Z,2.67
2022-10-31T01:57:48.369Z,2.53
2022-10-31T02:00:18.706Z,3.10
2022-10-31T02:03:10.988Z,3.27
2022-10-31T02:05:46.027Z,3.37
2022-10-31T02:08:15.155Z,3.53
2022-10-31T02:10:44.150Z,3.33
2022-10-31T02:13:11.690Z,4.00
2022-10-31T02:15:46.272Z,3.23
2022-10-31T02:18:13.584Z,3.57
2022-10-31T02:20:56.695Z,3.30
2022-10-31T02:23:39.875Z,3.37
2022-10-31T02:26:31.956Z,3.87
2022-10-31T02:29:07.305Z,3.50
2022-10-31T02:31:53.533Z,3.37
2022-10-31T02:34:24.249Z,3.50
2022-10-31T02:36:55.071Z,3.20
2022-10-31T02:39:25.529Z,3.63
2022-10-31T02:41:58.520Z,4.23
2022-10-31T02:44:30.996Z,3.57
2022-10-31T02:47:01.350Z,3.47
2022-10-31T02:49:35.581Z,3.90
2022-10-31T02:52:02.888Z,3.27
2022-10-31T02:54:30.896Z,4.33
2022-10-31T02:57:01.939Z,3.97
2022-10-31T02:59:29.529Z,3.73
2022-10-31T03:02:02.886Z,3.60
2022-10-31T03:04:39.309Z,4.30
2022-10-31T03:07:44.957Z,4.27
2022-10-31T03:10:33.279Z,3.70
2022-10-31T03:13:04.085Z,4.37
2022-10-31T03:15:33.747Z,3.97
2022-10-31T03:18:02.707Z,4.57
2022-10-31T03:20:35.225Z,4.00
2022-10-31T03:23:03.700Z,3.83
2022-10-31T03:25:31.796Z,3.67
2022-10-31T03:28:01.954Z,3.83
2022-10-31T03:30:31.707Z,3.70
2022-10-31T03:33:01.197Z,3.67
2022-10-31T03:38:24.056Z,4.50
2022-10-31T03:40:53.217Z,4.00
2022-10-31T03:45:59.889Z,4.37
2022-10-31T03:48:52.233Z,4.70
2022-10-31T03:51:24.605Z,4.57
2022-10-31T03:53:56.531Z,3.93
2022-10-31T03:56:25.790Z,4.67
2022-10-31T03:58:57.607Z,6.50
2022-10-31T04:01:25.463Z,5.03
2022-10-31T04:03:53.210Z,5.87
2022-10-31T04:06:20.840Z,5.43
2022-10-31T04:08:50.860Z,4.87
2022-10-31T04:11:23.245Z,5.27
2022-10-31T04:14:10.285Z,5.23
2022-10-31T04:16:57.395Z,4.97
2022-10-31T04:19:44.954Z,5.47
2022-10-31T04:22:12.376Z,5.23
2022-10-31T04:24:41.203Z,5.10
2022-10-31T04:27:12.651Z,5.23
2022-10-31T04:29:39.890Z,4.87
2022-10-31T04:32:07.189Z,5.10
2022-10-31T04:34:38.571Z,5.67
2022-10-31T04:37:06.164Z,5.17
2022-10-31T04:39:33.733Z,5.57
2022-10-31T04:42:21.067Z,6.30
2022-10-31T04:44:54.759Z,6.07
2022-10-31T04:47:26.844Z,6.00
2022-10-31T04:49:54.510Z,6.40
2022-10-31T04:52:22.352Z,6.13
2022-10-31T04:54:49.980Z,7.17
2022-10-31T04:57:48.352Z,6.47
2022-10-31T05:00:17.397Z,7.03
2022-10-31T05:02:45.493Z,6.60
2022-10-31T05:05:13.201Z,6.57
2022-10-31T05:07:41.491Z,6.47
2022-10-31T05:10:09.194Z,7.70
2022-10-31T05:12:36.541Z,6.80
2022-10-31T05:15:26.222Z,7.33
2022-10-31T05:18:08.820Z,7.03
2022-10-31T05:21:09.098Z,7.67
2022-10-31T05:23:58.241Z,6.97
2022-10-31T05:26:25.681Z,7.27
2022-10-31T05:28:54.613Z,7.30
2022-10-31T05:31:23.284Z,7.63
2022-10-31T05:33:58.078Z,7.33
2022-10-31T05:36:43.880Z,7.57
2022-10-31T05:39:23.483Z,7.90
2022-10-31T05:41:55.827Z,7.40
2022-10-31T05:44:26.920Z,7.33
2022-10-31T05:47:18.517Z,7.17
2022-10-31T05:50:05.495Z,6.80
2022-10-31T05:52:56.293Z,7.87
2022-10-31T05:55:34.887Z,6.73
2022-10-31T05:58:10.755Z,7.27
2022-10-31T06:04:20.774Z,7.87
2022-10-31T06:06:48.173Z,7.03
2022-10-31T06:09:15.409Z,6.70
2022-10-31T06:11:44.489Z,7.47
2022-10-31T06:14:31.698Z,7.27
2022-10-31T06:16:59.310Z,7.60
2022-10-31T06:19:58.561Z,7.20
2022-10-31T06:22:27.544Z,6.50
2022-10-31T06:24:55.849Z,7.13
2022-10-31T06:27:29.110Z,7.43
2022-10-31T06:29:58.545Z,6.80
2022-10-31T06:32:32.014Z,7.57
2022-10-31T06:35:00.712Z,7.03
2022-10-31T06:37:27.990Z,6.70
2022-10-31T06:40:01.853Z,7.47
2022-10-31T06:42:32.213Z,7.30
2022-10-31T06:45:01.760Z,8.07
2022-10-31T06:47:31.966Z,6.90
2022-10-31T06:50:06.448Z,7.90
2022-10-31T06:52:33.930Z,7.67
2022-10-31T06:55:03.684Z,7.70
2022-10-31T06:57:32.215Z,7.67
2022-10-31T06:59:59.416Z,7.30
2022-10-31T07:02:40.492Z,7.33
2022-10-31T07:05:09.465Z,2.93
2022-10-31T07:07:37.358Z,7.30
2022-10-31T07:10:05.167Z,8.33
2022-10-31T07:12:46.097Z,8.13
2022-10-31T07:15:13.380Z,8.97
2022-10-31T07:17:49.398Z,9.60
2022-10-31T07:20:18.690Z,8.50
2022-10-31T07:22:50.465Z,9.00
2022-10-31T07:25:18.176Z,10.07
2022-10-31T07:28:09.365Z,10.00
2022-10-31T07:30:59.753Z,9.07
2022-10-31T07:33:27.449Z,7.60
2022-10-31T07:36:14.397Z,9.17
2022-10-31T07:38:44.122Z,10.27
2022-10-31T07:41:11.404Z,9.97
2022-10-31T07:43:43.138Z,10.40
2022-10-31T07:46:30.376Z,12.13
2022-10-31T07:49:21.304Z,10.57
2022-10-31T07:52:10.171Z,10.10
2022-10-31T07:54:56.004Z,11.23
2022-10-31T07:57:25.357Z,10.80
2022-10-31T07:59:54.713Z,11.10
2022-10-31T08:02:42.107Z,9.20
2022-10-31T08:05:28.190Z,10.20
2022-10-31T08:08:15.909Z,10.50
2022-10-31T08:10:44.228Z,10.30
2022-10-31T08:13:12.303Z,10.83
2022-10-31T08:15:43.026Z,10.33
2022-10-31T08:18:13.261Z,10.70
2022-10-31T08:20:40.823Z,13.17
2022-10-31T08:23:08.104Z,11.67
2022-10-31T08:25:38.845Z,11.40
2022-10-31T08:28:22.239Z,11.07
2022-10-31T08:31:13.770Z,8.93
2022-10-31T08:33:45.941Z,10.87
2022-10-31T08:36:31.952Z,9.30
2022-10-31T08:39:19.437Z,10.47
2022-10-31T08:41:48.114Z,10.23
2022-10-31T08:44:15.424Z,12.07
2022-10-31T08:46:53.993Z,12.23
2022-10-31T08:49:23.264Z,14.30
2022-10-31T08:51:51.777Z,10.17
2022-10-31T08:54:21.409Z,12.83
2022-10-31T08:57:08.101Z,11.50
2022-10-31T09:00:01.447Z,10.53
2022-10-31T09:02:49.045Z,10.97
2022-10-31T09:05:16.419Z,13.63
2022-10-31T09:07:43.666Z,12.40
2022-10-31T09:10:11.286Z,13.93
2022-10-31T09:12:40.834Z,14.47
2022-10-31T09:15:27.273Z,14.53
2022-10-31T09:18:03.279Z,10.90
2022-10-31T09:20:39.148Z,14.13
2022-10-31T09:23:07.398Z,13.03
2022-10-31T09:25:37.576Z,15.10
2022-10-31T09:28:32.527Z,14.97
2022-10-31T09:31:30.839Z,13.83
2022-10-31T09:34:02.290Z,11.17
2022-10-31T09:36:38.714Z,12.17
2022-10-31T09:39:12.942Z,11.67
2022-10-31T09:41:56.096Z,10.50
2022-10-31T09:44:28.791Z,10.03
2022-10-31T09:47:04.209Z,10.23
2022-10-31T09:49:37.216Z,7.77
2022-10-31T09:54:40.037Z,11.70
2022-10-31T09:57:33.845Z,10.30
2022-10-31T10:00:18.849Z,10.03
2022-10-31T10:02:49.311Z,11.37
2022-10-31T10:05:19.019Z,10.23
2022-10-31T10:07:50.435Z,8.67
2022-10-31T10:10:50.129Z,8.60
2022-10-31T10:13:53.528Z,6.87
2022-10-31T10:16:40.049Z,7.50
2022-10-31T10:19:14.201Z,9.90
2022-10-31T10:21:45.437Z,9.67
2022-10-31T10:24:19.509Z,9.40
2022-10-31T10:27:08.496Z,8.90
2022-10-31T10:29:57.528Z,8.10
2022-10-31T10:32:28.238Z,8.57
2022-10-31T10:34:57.625Z,9.87
2022-10-31T10:37:27.534Z,8.60
2022-10-31T10:39:57.317Z,9.00
2022-10-31T10:42:26.835Z,7.33
2022-10-31T10:45:01.410Z,8.33
2022-10-31T10:47:33.215Z,8.57
2022-10-31T10:50:01.336Z,7.73
2022-10-31T10:52:50.486Z,7.73
2022-10-31T10:55:34.521Z,7.93
2022-10-31T10:58:14.119Z,9.10
2022-10-31T11:00:44.408Z,8.33
2022-10-31T11:03:13.416Z,11.10
2022-10-31T11:05:41.351Z,8.40
2022-10-31T11:08:08.605Z,7.93
2022-10-31T11:10:36.785Z,6.60
2022-10-31T11:13:19.397Z,6.80
2022-10-31T11:15:54.773Z,7.03
2022-10-31T11:20:53.528Z,6.90
2022-10-31T11:23:21.777Z,7.50
2022-10-31T11:26:10.544Z,7.03
2022-10-31T11:28:59.380Z,7.57
2022-10-31T11:31:27.211Z,10.20
2022-10-31T11:33:58.166Z,7.43
2022-10-31T11:36:26.673Z,9.50
2022-10-31T11:38:54.397Z,11.67
2022-10-31T11:41:26.396Z,10.13
2022-10-31T11:44:04.932Z,13.77
2022-10-31T11:46:35.333Z,14.43
2022-10-31T11:49:03.989Z,13.60
2022-10-31T11:51:33.048Z,14.07
2022-10-31T11:54:19.357Z,15.10
2022-10-31T12:00:35.300Z,12.67
2022-10-31T12:03:12.276Z,15.70
2022-10-31T12:05:41.437Z,14.73
2022-10-31T12:08:09.315Z,17.93
2022-10-31T12:10:50.596Z,15.93
2022-10-31T12:13:32.193Z,19.60
2022-10-31T12:16:02.593Z,18.70
2022-10-31T12:18:35.040Z,19.90
2022-10-31T12:21:10.415Z,20.53
2022-10-31T12:23:50.022Z,17.67
2022-10-31T12:26:47.499Z,16.13
2022-10-31T12:29:35.440Z,22.87
2022-10-31T12:32:10.259Z,20.20
2022-10-31T12:34:52.348Z,18.57
2022-10-31T12:37:28.473Z,19.57
2022-10-31T12:40:01.576Z,17.10
2022-10-31T12:42:53.893Z,18.90
2022-10-31T12:45:29.529Z,13.30
2022-10-31T12:48:12.014Z,19.23
2022-10-31T12:50:52.611Z,16.80
2022-10-31T12:53:38.662Z,18.30
2022-10-31T12:59:55.229Z,18.27
2022-10-31T13:02:25.689Z,17.93
2022-10-31T13:04:55.391Z,13.03
2022-10-31T13:07:25.049Z,16.87
2022-10-31T13:09:55.753Z,12.83
2022-10-31T13:15:18.657Z,15.30
2022-10-31T13:17:46.906Z,14.70
2022-10-31T13:20:20.516Z,14.37
2022-10-31T13:22:49.889Z,16.73
2022-10-31T13:25:18.648Z,15.67
2022-10-31T13:27:55.395Z,15.67
2022-10-31T13:34:10.729Z,17.97
2022-10-31T13:36:39.904Z,14.80
2022-10-31T13:39:22.884Z,11.67
2022-10-31T13:41:52.700Z,16.23
2022-10-31T13:44:21.897Z,16.87
2022-10-31T13:49:44.967Z,17.10
2022-10-31T13:52:16.396Z,17.57
2022-10-31T13:54:44.757Z,20.60
2022-10-31T13:57:17.648Z,16.00
2022-10-31T13:59:49.011Z,16.23
2022-10-31T14:02:26.767Z,14.57
2022-10-31T14:05:25.366Z,20.37
2022-10-31T14:08:01.510Z,15.40
2022-10-31T14:10:30.033Z,19.57
2022-10-31T14:13:05.261Z,18.77
2022-10-31T14:15:33.212Z,19.33
2022-10-31T14:18:23.060Z,13.83
2022-10-31T14:20:50.254Z,17.80
2022-10-31T14:23:36.683Z,18.83
2022-10-31T14:26:21.628Z,19.27
2022-10-31T14:28:49.842Z,21.73
2022-10-31T14:31:29.352Z,20.37
2022-10-31T14:33:56.942Z,21.23
2022-10-31T14:36:28.625Z,22.00
2022-10-31T14:39:02.588Z,14.87
2022-10-31T14:41:36.289Z,19.77
2022-10-31T14:44:25.804Z,7.90
2022-10-31T14:47:14.397Z,18.37
2022-10-31T14:49:52.900Z,15.47
2022-10-31T14:52:20.707Z,13.07
2022-10-31T14:54:51.737Z,9.17
2022-10-31T14:57:22.958Z,18.83
2022-10-31T14:59:52.353Z,11.93
2022-10-31T15:02:23.336Z,19.30
2022-10-31T15:04:52.723Z,10.17
2022-10-31T15:07:24.930Z,15.87
2022-10-31T15:10:01.596Z,20.03
2022-10-31T15:12:29.577Z,17.83
2022-10-31T15:14:57.247Z,24.20
2022-10-31T15:23:55.381Z,19.60
2022-10-31T15:26:25.154Z,24.30
2022-10-31T15:29:02.641Z,21.37
2022-10-31T15:31:30.316Z,23.13
2022-10-31T15:34:00.260Z,17.63
2022-10-31T15:36:29.851Z,20.97
2022-10-31T15:38:59.037Z,22.63
2022-10-31T15:41:31.058Z,22.73
2022-10-31T15:44:02.645Z,22.20
2022-10-31T15:46:30.237Z,17.93
2022-10-31T15:48:57.617Z,18.97
2022-10-31T15:51:43.358Z,20.47
2022-10-31T15:54:35.840Z,18.43
2022-10-31T15:57:21.952Z,21.53
2022-10-31T15:59:50.901Z,13.77
2022-10-31T16:02:20.481Z,21.40
2022-10-31T16:04:51.940Z,22.00
2022-10-31T16:07:23.133Z,18.33
2022-10-31T16:09:52.130Z,20.83
2022-10-31T16:12:22.412Z,14.07
2022-10-31T16:14:52.769Z,7.63
2022-10-31T16:17:21.296Z,21.77
2022-10-31T16:19:50.969Z,18.90
2022-10-31T16:26:12.089Z,21.57
2022-10-31T16:28:39.992Z,19.37
2022-10-31T16:31:16.095Z,16.53
2022-10-31T16:33:43.340Z,6.03
2022-10-31T16:36:35.393Z,7.37
2022-10-31T16:39:03.119Z,10.87
2022-10-31T16:41:30.349Z,15.90
2022-10-31T16:43:57.849Z,21.13
2022-10-31T16:46:27.765Z,18.17
2022-10-31T16:48:55.528Z,21.43
2022-10-31T16:55:14.851Z,19.30
2022-10-31T16:57:43.945Z,18.03
2022-10-31T17:00:14.489Z,19.93
2022-10-31T17:02:43.281Z,12.63
2022-10-31T17:05:12.484Z,15.77
2022-10-31T17:07:39.670Z,16.97
2022-10-31T17:10:07.440Z,18.97
2022-10-31T17:12:34.865Z,17.43
2022-10-31T17:15:02.514Z,17.00
2022-10-31T17:17:29.769Z,18.43
2022-10-31T17:19:58.771Z,15.90
2022-10-31T17:22:26.398Z,16.50
2022-10-31T17:24:55.215Z,16.93
2022-10-31T17:27:22.458Z,17.20
2022-10-31T17:29:50.016Z,15.97
2022-10-31T17:32:17.173Z,15.77
2022-10-31T17:34:44.541Z,17.40
2022-10-31T17:37:13.170Z,16.37
2022-10-31T17:39:40.356Z,14.57
2022-10-31T17:42:07.602Z,15.50
2022-10-31T17:44:34.947Z,14.73
2022-10-31T17:47:02.306Z,14.23
2022-10-31T17:49:29.632Z,15.23
2022-10-31T17:51:56.829Z,11.53
2022-10-31T17:54:25.408Z,13.30
2022-10-31T17:56:54.064Z,14.60
2022-10-31T17:59:21.242Z,13.93
2022-10-31T18:01:48.536Z,14.97
2022-10-31T18:04:16.018Z,13.43
2022-10-31T18:06:43.191Z,8.97
2022-10-31T18:09:10.485Z,14.13
2022-10-31T18:11:39.016Z,14.70
2022-10-31T18:14:06.255Z,12.90
2022-10-31T18:16:33.586Z,10.67
2022-10-31T18:19:00.854Z,13.53
2022-10-31T18:21:28.419Z,10.90
2022-10-31T18:23:56.088Z,11.83
2022-10-31T18:26:23.426Z,12.43
2022-10-31T18:28:52.327Z,13.30
2022-10-31T18:31:19.844Z,10.90
2022-10-31T18:33:47.334Z,14.60
2022-10-31T18:36:14.825Z,13.83
2022-10-31T18:38:43.100Z,10.97
2022-10-31T18:41:10.279Z,12.40
2022-10-31T18:43:37.704Z,10.27
2022-10-31T18:46:07.637Z,12.33
2022-10-31T18:48:35.013Z,13.67
2022-10-31T18:53:30.297Z,10.67
2022-10-31T18:55:57.991Z,11.53
2022-10-31T18:58:25.272Z,12.67
2022-10-31T19:00:52.549Z,9.87
2022-10-31T19:03:25.864Z,11.03
2022-10-31T19:05:54.908Z,13.07
2022-10-31T19:08:22.147Z,12.47
2022-10-31T19:10:49.428Z,7.90
2022-10-31T19:13:16.616Z,10.77
2022-10-31T19:15:43.833Z,11.27
2022-10-31T19:18:11.065Z,11.43
2022-10-31T19:20:39.902Z,10.07
2022-10-31T19:23:07.197Z,9.77
2022-10-31T19:25:34.512Z,11.53
2022-10-31T19:28:02.029Z,9.90
2022-10-31T19:30:29.621Z,11.57
2022-10-31T19:32:56.821Z,11.40
2022-10-31T19:35:24.301Z,9.90
2022-10-31T19:37:52.931Z,9.40
2022-10-31T19:40:20.115Z,10.07
2022-10-31T19:42:47.368Z,8.47
2022-10-31T19:45:14.574Z,7.50
2022-10-31T19:47:41.804Z,7.67
2022-10-31T19:50:09.793Z,9.80
2022-10-31T19:52:36.991Z,9.93
2022-10-31T19:55:06.077Z,8.80
2022-10-31T19:57:56.643Z,8.70
2022-10-31T20:00:21.326Z,8.97
2022-10-31T20:02:48.551Z,9.27
2022-10-31T20:05:15.893Z,8.03
2022-10-31T20:07:43.094Z,8.67
2022-10-31T20:10:11.788Z,7.50
2022-10-31T20:12:39.084Z,9.23
2022-10-31T20:15:06.779Z,8.90
2022-10-31T20:17:34.018Z,8.00
2022-10-31T20:20:01.387Z,6.93
2022-10-31T20:22:28.724Z,9.00
2022-10-31T20:24:56.001Z,7.40
2022-10-31T20:27:24.525Z,7.93
2022-10-31T20:29:51.745Z,6.83
2022-10-31T20:32:20.241Z,7.60
2022-10-31T20:37:19.663Z,7.70
2022-10-31T20:39:46.881Z,6.70
2022-10-31T20:42:14.081Z,7.20
2022-10-31T20:44:42.687Z,8.30
2022-10-31T20:47:09.864Z,7.83
2022-10-31T20:49:37.072Z,6.53
2022-10-31T20:52:04.313Z,5.97
2022-10-31T20:54:31.505Z,7.40
2022-10-31T20:56:58.748Z,7.23
2022-10-31T20:59:25.937Z,6.23
2022-10-31T21:01:54.609Z,6.13
2022-10-31T21:04:22.057Z,7.83
2022-10-31T21:06:49.775Z,7.03
2022-10-31T21:09:17.110Z,5.43
2022-10-31T21:11:44.431Z,6.50
2022-10-31T21:14:11.669Z,6.63
2022-10-31T21:16:38.854Z,5.60
2022-10-31T21:19:07.385Z,5.57
2022-10-31T21:21:35.834Z,6.07
2022-10-31T21:24:04.219Z,6.27
2022-10-31T21:26:32.984Z,6.17
2022-10-31T21:29:00.391Z,6.10
2022-10-31T21:31:27.594Z,6.37
2022-10-31T21:33:54.865Z,6.87
2022-10-31T21:36:23.492Z,7.43
2022-10-31T21:38:50.817Z,5.23
2022-10-31T21:41:18.438Z,5.93
2022-10-31T21:43:46.377Z,6.27
2022-10-31T21:46:15.028Z,5.97
2022-10-31T21:48:42.694Z,5.83
2022-10-31T21:51:10.402Z,5.33
2022-10-31T21:53:39.150Z,6.27
2022-10-31T21:56:06.868Z,5.60
2022-10-31T21:58:36.282Z,5.70
2022-10-31T22:01:05.965Z,5.13
2022-10-31T22:03:35.358Z,5.53
2022-10-31T22:06:02.923Z,5.33
2022-10-31T22:08:30.189Z,5.87
2022-10-31T22:11:02.137Z,5.50
2022-10-31T22:13:30.067Z,6.20
2022-10-31T22:16:00.350Z,5.23
2022-10-31T22:18:27.623Z,5.87
2022-10-31T22:20:54.818Z,6.00
2022-10-31T22:23:22.057Z,5.50
2022-10-31T22:25:49.229Z,6.33
2022-10-31T22:28:17.789Z,5.90
2022-10-31T22:30:45.001Z,6.70
2022-10-31T22:33:12.637Z,6.27
2022-10-31T22:35:39.879Z,6.90
2022-10-31T22:38:07.070Z,6.43
2022-10-31T22:40:40.495Z,4.37
2022-10-31T22:43:07.850Z,6.10
2022-10-31T22:45:36.762Z,6.67
2022-10-31T22:48:04.875Z,7.60
2022-10-31T22:54:22.413Z,5.60
2022-10-31T22:56:49.849Z,5.57
2022-10-31T22:59:17.376Z,6.50
2022-10-31T23:01:46.522Z,4.73
2022-10-31T23:04:14.046Z,6.37
2022-10-31T23:06:41.241Z,5.87
2022-10-31T23:09:10.103Z,5.93
2022-10-31T23:11:38.952Z,5.33
2022-10-31T23:14:07.471Z,5.67
2022-10-31T23:16:35.221Z,5.40
2022-10-31T23:19:04.644Z,4.97
2022-10-31T23:21:31.995Z,5.77
2022-10-31T23:23:59.352Z,6.27
2022-10-31T23:26:26.544Z,5.37
2022-10-31T23:28:53.748Z,5.53
2022-10-31T23:31:20.973Z,5.20
2022-10-31T23:33:48.169Z,5.20
2022-10-31T23:36:16.889Z,5.60
2022-10-31T23:38:44.168Z,5.17
2022-10-31T23:41:16.681Z,5.33
2022-10-31T23:43:44.215Z,5.50
2022-10-31T23:46:11.472Z,5.60
2022-10-31T23:48:38.687Z,5.93
2022-10-31T23:54:57.799Z,4.40
2022-10-31T23:57:25.352Z,6.03
2022-10-31T23:59:52.624Z,4.80
